Terminal Aerodrome Forecast
Issued by NWS

Home | Current Version | Previous Version | Text Only | Print | Product List | Glossary On
Versions: 1 2 3 4 5 6 7 8 9 10 11 12 13 14 15 16 17 18 19 20 21 22 23 24 25 26
677
FTUS41 KOKX 082030 AAB
TAFTEB
TAF AMD
KTEB 082030Z 0821/0918 36012KT P6SM OVC060
     FM082300 04008KT P6SM OVC015
      TEMPO 0900/0904 2SM -SN OVC007
     FM090400 05007KT 5SM -SN SCT008 OVC015
      TEMPO 0906/0910 2SM -SN OVC007
     FM091000 02010KT 4SM -SN SCT008 OVC015
     FM091500 03012KT 5SM -SN OVC015=

USA.gov is the U.S. government's official web portal to all federal, state and local government web resources and services.